Time;durP1;ratioP1;P1;durP2;ratioP2;P2;SDS_P1;SDS_P2;PMS_P1;PMS_P2;Temp;Humidity;BMP_temperature;BMP_pressure;BME280_temperature;BME280_humidity;BME280_pressure;Samples;Min_cycle;Max_cycle;Signal;HPM_P1;HPM_P2
2021/05/28 00:00:41;;;;;;;7.22;5.30;;;11.60;99.90;;;;;;5040008;28;20470;-70
2021/05/28 00:03:06;;;;;;;7.75;4.80;;;11.50;99.90;;;;;;5045633;28;20033;-67
2021/05/28 00:05:33;;;;;;;5.97;5.30;;;11.50;99.90;;;;;;5052393;28;20040;-68
2021/05/28 00:07:58;;;;;;;8.43;5.47;;;11.40;99.90;;;;;;5038025;28;20033;-68
2021/05/28 00:10:24;;;;;;;7.30;5.65;;;11.40;99.90;;;;;;5035002;28;20120;-68
2021/05/28 00:12:50;;;;;;;9.45;5.65;;;11.30;99.90;;;;;;5043657;28;20059;-68
2021/05/28 00:15:16;;;;;;;11.18;6.15;;;11.20;99.90;;;;;;5015909;28;20087;-67
2021/05/28 00:17:42;;;;;;;8.60;6.63;;;11.20;99.90;;;;;;5035472;28;20033;-70
2021/05/28 00:20:11;;;;;;;6.65;5.60;;;11.20;99.90;;;;;;5052170;28;20039;-67
2021/05/28 00:22:37;;;;;;;6.68;5.97;;;11.20;99.90;;;;;;5035197;28;20489;-68
2021/05/28 00:25:03;;;;;;;6.85;5.80;;;11.10;99.90;;;;;;5044245;28;20028;-67
2021/05/28 00:27:30;;;;;;;8.05;7.10;;;11.20;99.90;;;;;;5047687;28;20037;-67
2021/05/28 00:29:56;;;;;;;8.02;6.70;;;11.10;99.90;;;;;;5040555;28;20028;-67
2021/05/28 00:32:22;;;;;;;7.55;6.75;;;11.20;99.90;;;;;;5049119;28;20036;-67
2021/05/28 00:34:49;;;;;;;9.93;7.40;;;11.10;99.90;;;;;;5033262;28;20045;-68
2021/05/28 00:37:16;;;;;;;9.82;6.85;;;11.10;99.90;;;;;;5034471;28;20108;-68
2021/05/28 00:39:41;;;;;;;8.32;6.57;;;11.20;99.90;;;;;;5032630;28;20129;-68
2021/05/28 00:42:07;;;;;;;8.05;6.63;;;11.10;99.90;;;;;;5034194;28;20486;-68
2021/05/28 00:44:33;;;;;;;7.75;6.57;;;11.10;99.90;;;;;;5016443;28;20086;-68
2021/05/28 00:46:59;;;;;;;11.23;7.00;;;11.00;99.90;;;;;;5031729;28;20033;-68
2021/05/28 00:49:24;;;;;;;10.43;7.80;;;11.00;99.90;;;;;;5032755;28;20113;-68
2021/05/28 00:51:51;;;;;;;8.82;7.22;;;11.10;99.90;;;;;;5031847;28;20479;-68
2021/05/28 00:54:17;;;;;;;8.68;6.93;;;11.10;99.90;;;;;;5027661;28;20033;-67
2021/05/28 00:56:43;;;;;;;9.63;7.00;;;11.00;99.90;;;;;;5041788;28;20495;-70
2021/05/28 00:59:10;;;;;;;8.77;6.63;;;10.90;99.90;;;;;;5032479;28;20210;-68
2021/05/28 01:01:35;;;;;;;10.32;6.30;;;10.90;99.90;;;;;;5032406;28;20025;-68
2021/05/28 01:04:01;;;;;;;7.70;6.90;;;10.90;99.90;;;;;;5042337;28;20347;-67
2021/05/28 01:06:27;;;;;;;9.82;6.00;;;10.90;99.90;;;;;;5042092;28;20028;-67
2021/05/28 01:08:54;;;;;;;10.02;6.40;;;10.90;99.90;;;;;;5050490;28;20033;-67
2021/05/28 01:11:20;;;;;;;7.68;6.32;;;10.80;99.90;;;;;;5051638;28;20082;-67
2021/05/28 01:13:46;;;;;;;6.03;5.35;;;10.80;99.90;;;;;;5043655;28;20029;-71
2021/05/28 01:16:12;;;;;;;7.32;6.45;;;10.80;99.90;;;;;;5050614;28;20041;-67
2021/05/28 01:18:37;;;;;;;8.10;5.35;;;10.80;99.90;;;;;;5033971;28;20039;-69
2021/05/28 01:21:03;;;;;;;6.47;5.55;;;10.80;99.90;;;;;;5050428;28;20035;-68
2021/05/28 01:23:32;;;;;;;6.88;5.18;;;10.80;99.90;;;;;;5048600;28;20036;-68
2021/05/28 01:25:58;;;;;;;5.13;4.45;;;10.80;99.90;;;;;;5049748;28;20052;-67
2021/05/28 01:28:23;;;;;;;7.13;4.50;;;10.80;99.90;;;;;;5032984;28;20068;-67
2021/05/28 01:30:49;;;;;;;5.20;3.67;;;10.80;99.90;;;;;;5037427;28;20026;-68
2021/05/28 01:33:15;;;;;;;9.77;3.58;;;10.90;99.90;;;;;;5013940;28;20084;-67
2021/05/28 01:35:40;;;;;;;5.07;3.75;;;10.90;99.90;;;;;;5049238;28;20115;-67
2021/05/28 01:38:06;;;;;;;5.00;3.72;;;10.90;99.90;;;;;;5049414;28;20027;-67
2021/05/28 01:40:33;;;;;;;5.63;4.05;;;10.80;99.90;;;;;;5049875;28;20040;-67
2021/05/28 01:42:58;;;;;;;4.22;3.30;;;10.80;99.90;;;;;;5049146;28;20029;-67
2021/05/28 01:45:24;;;;;;;4.28;3.60;;;10.80;99.90;;;;;;5036318;28;20051;-67
2021/05/28 01:47:54;;;;;;;4.43;3.88;;;10.80;99.90;;;;;;5049901;28;20474;-69
2021/05/28 01:50:19;;;;;;;4.75;3.30;;;10.80;99.90;;;;;;5031790;28;20021;-67
2021/05/28 01:52:45;;;;;;;3.25;2.92;;;10.80;99.90;;;;;;5038156;28;20036;-71
2021/05/28 01:55:14;;;;;;;6.82;3.70;;;10.70;99.90;;;;;;5034359;28;20045;-67
2021/05/28 01:57:40;;;;;;;6.93;3.75;;;10.70;99.90;;;;;;5049594;28;20466;-67
2021/05/28 02:00:09;;;;;;;4.53;3.05;;;10.70;99.90;;;;;;5047089;28;20104;-67
2021/05/28 02:02:35;;;;;;;4.25;3.00;;;10.70;99.90;;;;;;5049179;28;20171;-66
2021/05/28 02:05:01;;;;;;;3.53;3.17;;;10.70;99.90;;;;;;5033799;28;20072;-67
2021/05/28 02:07:28;;;;;;;4.20;3.72;;;10.70;99.90;;;;;;5042894;28;20552;-66
2021/05/28 02:09:53;;;;;;;5.95;3.10;;;10.70;99.90;;;;;;5030774;28;20034;-66
2021/05/28 02:12:21;;;;;;;4.65;3.08;;;10.70;99.90;;;;;;5039348;28;20040;-66
2021/05/28 02:14:46;;;;;;;3.20;2.70;;;10.70;99.90;;;;;;5031872;28;20112;-70
2021/05/28 02:17:12;;;;;;;4.88;3.00;;;10.70;99.90;;;;;;5031954;28;20120;-67
2021/05/28 02:19:38;;;;;;;5.15;3.08;;;10.70;99.90;;;;;;5036317;28;20033;-66
2021/05/28 02:22:04;;;;;;;5.68;3.13;;;10.80;99.90;;;;;;5031921;28;20060;-67
2021/05/28 02:24:29;;;;;;;4.03;2.20;;;10.70;99.90;;;;;;5047305;28;20037;-67
2021/05/28 02:26:56;;;;;;;6.03;2.90;;;10.70;99.90;;;;;;5042867;28;20025;-66
2021/05/28 02:29:23;;;;;;;4.93;3.17;;;10.70;99.90;;;;;;5044387;28;20067;-67
2021/05/28 02:31:49;;;;;;;4.22;2.45;;;10.70;99.90;;;;;;5015783;28;20029;-70
2021/05/28 02:34:14;;;;;;;3.13;2.72;;;10.70;99.90;;;;;;5050385;28;20090;-69
2021/05/28 02:36:40;;;;;;;4.10;2.83;;;10.70;99.90;;;;;;5050515;28;20049;-66
2021/05/28 02:39:07;;;;;;;4.32;2.83;;;10.70;99.90;;;;;;5050762;28;20222;-66
2021/05/28 02:41:32;;;;;;;3.35;2.70;;;10.70;99.90;;;;;;5054049;28;20029;-67
2021/05/28 02:43:59;;;;;;;3.83;2.75;;;10.70;99.90;;;;;;5034409;28;20067;-66
2021/05/28 02:46:24;;;;;;;3.03;2.72;;;10.70;99.90;;;;;;5039228;28;20056;-66
2021/05/28 02:48:50;;;;;;;4.50;2.65;;;10.60;99.90;;;;;;5053323;28;20056;-71
2021/05/28 02:51:16;;;;;;;5.90;2.92;;;10.60;99.90;;;;;;5054039;28;20455;-67
2021/05/28 02:53:41;;;;;;;6.95;3.80;;;10.60;99.90;;;;;;5050241;28;20360;-67
2021/05/28 02:56:07;;;;;;;5.13;3.10;;;10.60;99.90;;;;;;5037648;28;20099;-66
2021/05/28 02:58:33;;;;;;;3.63;2.78;;;10.50;99.90;;;;;;5042744;28;20173;-68
2021/05/28 03:00:59;;;;;;;4.35;2.88;;;10.50;99.90;;;;;;5041633;28;20021;-68
2021/05/28 03:03:25;;;;;;;5.45;3.40;;;10.50;99.90;;;;;;5040926;28;20454;-68
2021/05/28 03:05:51;;;;;;;3.88;3.13;;;10.40;99.90;;;;;;5035182;28;20489;-72
2021/05/28 03:08:18;;;;;;;4.47;3.15;;;10.40;99.90;;;;;;5036163;28;20363;-67
2021/05/28 03:10:43;;;;;;;4.78;3.05;;;10.40;99.90;;;;;;5043327;28;20032;-68
2021/05/28 03:13:09;;;;;;;3.88;2.95;;;10.40;99.90;;;;;;5050451;28;20029;-68
2021/05/28 03:15:35;;;;;;;4.32;3.17;;;10.40;99.90;;;;;;5051398;28;20390;-68
2021/05/28 03:18:02;;;;;;;3.28;2.85;;;10.40;99.90;;;;;;5052968;28;20087;-68
2021/05/28 03:20:35;;;;;;;3.75;2.75;;;10.40;99.90;;;;;;5036622;28;20057;-68
2021/05/28 03:23:03;;;;;;;4.65;3.10;;;10.40;99.90;;;;;;5053251;28;20040;-68
2021/05/28 03:25:29;;;;;;;2.83;2.50;;;10.40;99.90;;;;;;5045249;28;20057;-68
2021/05/28 03:27:54;;;;;;;2.80;2.40;;;10.40;99.90;;;;;;5034943;28;20440;-69
2021/05/28 03:30:20;;;;;;;3.67;2.60;;;10.40;99.90;;;;;;5035046;28;20465;-68
2021/05/28 03:32:46;;;;;;;3.20;2.90;;;10.40;99.90;;;;;;5034821;28;20025;-68
2021/05/28 03:35:13;;;;;;;4.75;2.70;;;10.30;99.90;;;;;;5026106;28;20059;-68
2021/05/28 03:37:39;;;;;;;2.70;2.22;;;10.30;99.90;;;;;;5045610;28;20146;-68
2021/05/28 03:40:07;;;;;;;2.95;2.20;;;10.30;99.90;;;;;;5062057;28;20036;-68
2021/05/28 03:42:32;;;;;;;2.80;2.35;;;10.20;99.90;;;;;;5036643;28;20138;-68
2021/05/28 03:44:58;;;;;;;4.20;2.90;;;10.10;99.90;;;;;;5041110;28;20132;-68
2021/05/28 03:47:24;;;;;;;5.57;3.65;;;10.10;99.90;;;;;;5047348;28;20025;-68
2021/05/28 03:49:49;;;;;;;4.03;2.78;;;10.00;99.90;;;;;;5052643;28;20025;-73
2021/05/28 03:52:15;;;;;;;3.40;2.95;;;9.90;99.90;;;;;;5052681;28;20399;-68
2021/05/28 03:54:41;;;;;;;6.65;3.10;;;9.80;99.90;;;;;;5027593;28;20047;-67
2021/05/28 03:57:07;;;;;;;3.08;2.70;;;9.80;99.90;;;;;;5033938;28;20467;-67
2021/05/28 03:59:33;;;;;;;2.95;2.47;;;9.70;99.90;;;;;;5041215;28;20172;-68
2021/05/28 04:01:59;;;;;;;5.65;2.90;;;9.70;99.90;;;;;;5032280;28;20034;-69
2021/05/28 04:04:25;;;;;;;4.35;3.20;;;9.70;99.90;;;;;;5043115;28;20029;-68
2021/05/28 04:06:50;;;;;;;5.50;3.28;;;9.70;99.90;;;;;;5049726;28;20029;-72
2021/05/28 04:09:16;;;;;;;4.95;3.30;;;9.70;99.90;;;;;;5036094;28;20025;-68
2021/05/28 04:11:42;;;;;;;4.68;3.60;;;9.70;99.90;;;;;;5033823;28;20025;-68
2021/05/28 04:14:08;;;;;;;6.20;4.10;;;9.70;99.90;;;;;;5043089;28;20541;-67
2021/05/28 04:16:33;;;;;;;9.93;4.32;;;9.80;99.90;;;;;;5042625;28;20420;-67
2021/05/28 04:18:59;;;;;;;4.50;3.85;;;9.80;99.90;;;;;;5051461;28;20072;-68
2021/05/28 04:21:24;;;;;;;4.57;3.55;;;9.90;99.90;;;;;;5033206;28;20383;-67
2021/05/28 04:23:50;;;;;;;5.40;4.25;;;9.90;99.90;;;;;;5039691;28;20025;-72
2021/05/28 04:26:16;;;;;;;3.75;3.35;;;9.90;99.90;;;;;;5048101;28;20082;-68
2021/05/28 04:28:42;;;;;;;4.78;3.70;;;9.90;99.90;;;;;;5052027;28;20039;-68
2021/05/28 04:31:07;;;;;;;7.07;5.18;;;9.90;99.90;;;;;;5036268;28;20043;-67
2021/05/28 04:33:33;;;;;;;5.65;4.50;;;10.00;99.90;;;;;;5045057;28;20421;-68
2021/05/28 04:35:59;;;;;;;5.68;4.18;;;10.10;99.90;;;;;;5023696;28;20440;-68
2021/05/28 04:38:24;;;;;;;11.70;6.10;;;10.10;99.90;;;;;;5040910;28;20446;-67
2021/05/28 04:40:53;;;;;;;6.93;4.72;;;10.10;99.90;;;;;;5041257;28;20039;-71
2021/05/28 04:43:19;;;;;;;10.75;6.05;;;10.20;99.90;;;;;;5024159;28;20049;-67
2021/05/28 04:45:45;;;;;;;9.38;5.50;;;10.30;99.90;;;;;;5040894;28;20083;-67
2021/05/28 04:48:11;;;;;;;7.95;6.03;;;10.30;99.90;;;;;;5036868;28;20029;-67
2021/05/28 04:50:37;;;;;;;8.93;5.60;;;10.30;99.90;;;;;;5037907;28;20025;-67
2021/05/28 04:53:05;;;;;;;11.38;6.95;;;10.40;99.90;;;;;;5047844;28;20033;-68
2021/05/28 04:55:31;;;;;;;12.50;6.82;;;10.40;99.90;;;;;;5040842;28;20044;-67
2021/05/28 04:57:57;;;;;;;9.20;5.68;;;10.50;99.90;;;;;;5019663;28;20037;-68
2021/05/28 05:00:24;;;;;;;9.88;6.30;;;10.60;99.90;;;;;;5030489;28;20068;-68
2021/05/28 05:02:50;;;;;;;11.10;6.57;;;10.70;99.90;;;;;;5050119;28;20028;-71
2021/05/28 05:05:16;;;;;;;7.82;5.68;;;10.70;99.90;;;;;;5047129;28;20548;-67
2021/05/28 05:07:43;;;;;;;9.80;5.85;;;10.80;99.90;;;;;;5045633;28;20092;-67
2021/05/28 05:10:09;;;;;;;9.77;6.07;;;10.80;99.90;;;;;;5032849;28;20176;-68
2021/05/28 05:12:36;;;;;;;11.43;6.70;;;10.90;99.90;;;;;;5051246;28;20532;-67
2021/05/28 05:15:02;;;;;;;9.43;6.40;;;11.00;99.90;;;;;;5050276;28;20398;-67
2021/05/28 05:17:28;;;;;;;9.13;6.13;;;11.00;99.90;;;;;;5050372;28;20025;-67
2021/05/28 05:19:53;;;;;;;10.15;6.53;;;11.10;99.90;;;;;;5050998;28;20036;-71
2021/05/28 05:22:19;;;;;;;10.30;5.95;;;11.20;99.90;;;;;;5033651;28;20034;-67
2021/05/28 05:24:45;;;;;;;11.75;6.55;;;11.30;99.90;;;;;;5014611;28;20112;-68
2021/05/28 05:27:10;;;;;;;11.63;6.38;;;11.30;99.90;;;;;;5031423;28;20029;-67
2021/05/28 05:29:36;;;;;;;8.52;6.03;;;11.40;99.90;;;;;;5030267;28;20033;-68
2021/05/28 05:32:02;;;;;;;12.27;7.72;;;11.50;99.90;;;;;;5048304;28;20029;-66
2021/05/28 05:34:28;;;;;;;10.70;6.72;;;11.50;99.90;;;;;;5051530;28;20029;-66
2021/05/28 05:36:53;;;;;;;8.45;5.53;;;11.50;99.90;;;;;;5019339;28;20037;-69
2021/05/28 05:39:21;;;;;;;12.57;7.00;;;11.60;99.90;;;;;;5032886;28;20025;-66
2021/05/28 05:41:47;;;;;;;9.43;6.55;;;11.70;99.70;;;;;;5031674;28;20463;-66
2021/05/28 05:44:13;;;;;;;8.32;6.55;;;11.70;99.00;;;;;;5031160;28;20083;-66
2021/05/28 05:46:39;;;;;;;8.57;6.35;;;11.80;97.90;;;;;;5039389;28;20052;-66
2021/05/28 05:49:05;;;;;;;11.52;6.75;;;11.90;97.50;;;;;;5031193;28;20486;-66
2021/05/28 05:51:31;;;;;;;12.10;6.65;;;12.00;96.80;;;;;;5032050;28;20033;-66
2021/05/28 05:53:57;;;;;;;11.20;7.28;;;12.00;96.70;;;;;;5042438;28;20029;-67
2021/05/28 05:56:23;;;;;;;9.48;6.78;;;12.00;97.10;;;;;;5048533;28;20037;-68
2021/05/28 05:58:48;;;;;;;9.32;6.55;;;12.00;97.50;;;;;;5051120;28;20064;-67
2021/05/28 06:01:14;;;;;;;12.10;6.63;;;12.00;98.00;;;;;;5050077;28;20033;-65
2021/05/28 06:03:40;;;;;;;11.43;6.68;;;12.00;98.40;;;;;;5048790;28;20036;-67
2021/05/28 06:06:06;;;;;;;14.30;6.93;;;12.00;98.00;;;;;;5038015;28;20031;-67
2021/05/28 06:08:31;;;;;;;9.07;6.10;;;12.00;97.50;;;;;;5037407;28;20030;-67
2021/05/28 06:10:57;;;;;;;11.27;7.28;;;12.00;97.70;;;;;;5030772;28;20422;-68
2021/05/28 06:13:23;;;;;;;11.38;6.68;;;12.10;97.00;;;;;;5046604;28;20032;-67
2021/05/28 06:15:50;;;;;;;11.05;6.57;;;12.10;97.20;;;;;;5043016;28;20439;-67
2021/05/28 06:18:16;;;;;;;10.55;5.85;;;12.20;96.90;;;;;;5046809;28;20025;-68
2021/05/28 06:20:42;;;;;;;9.13;5.88;;;12.30;96.90;;;;;;5054016;28;20029;-67
2021/05/28 06:23:08;;;;;;;15.68;7.90;;;12.40;97.00;;;;;;5039333;28;20075;-67
2021/05/28 06:25:35;;;;;;;14.60;7.55;;;12.60;95.80;;;;;;5050877;28;20029;-67
2021/05/28 06:28:01;;;;;;;10.23;7.43;;;12.70;94.70;;;;;;5034494;28;20034;-68
2021/05/28 06:30:27;;;;;;;13.80;7.97;;;12.80;94.40;;;;;;5044247;28;20036;-67
2021/05/28 06:32:53;;;;;;;11.82;7.50;;;12.80;94.90;;;;;;5045757;28;20021;-67
2021/05/28 06:35:19;;;;;;;10.43;6.78;;;12.90;94.10;;;;;;5046241;28;20050;-67
2021/05/28 06:37:44;;;;;;;11.02;7.57;;;12.80;94.40;;;;;;5034970;28;20034;-66
2021/05/28 06:40:11;;;;;;;12.88;7.22;;;13.00;93.70;;;;;;5034294;28;20033;-67
2021/05/28 06:42:37;;;;;;;14.93;7.38;;;13.20;93.10;;;;;;5017249;28;20391;-66
2021/05/28 06:45:04;;;;;;;10.98;7.28;;;13.30;92.00;;;;;;5035278;28;20033;-66
2021/05/28 06:47:30;;;;;;;13.65;7.35;;;13.40;91.50;;;;;;5051305;28;20108;-67
2021/05/28 06:49:55;;;;;;;13.20;7.93;;;13.40;90.80;;;;;;5044594;28;20117;-69
2021/05/28 06:52:21;;;;;;;12.10;7.28;;;13.60;90.10;;;;;;5016751;28;20048;-66
2021/05/28 06:54:47;;;;;;;10.32;6.97;;;13.50;90.70;;;;;;5035850;28;20538;-67
2021/05/28 06:57:13;;;;;;;10.73;6.85;;;13.50;90.70;;;;;;5033617;28;20125;-67
2021/05/28 06:59:39;;;;;;;9.75;6.65;;;13.60;90.10;;;;;;5050467;28;20056;-66
2021/05/28 07:02:06;;;;;;;10.55;6.85;;;13.60;89.30;;;;;;5050558;28;20060;-67
2021/05/28 07:04:35;;;;;;;10.50;6.93;;;13.60;89.50;;;;;;5050414;28;20104;-67
2021/05/28 07:07:01;;;;;;;15.50;8.55;;;13.70;90.20;;;;;;5035659;28;20037;-67
2021/05/28 07:09:26;;;;;;;11.25;7.35;;;13.80;89.60;;;;;;5034297;28;20040;-67
2021/05/28 07:11:52;;;;;;;11.88;7.32;;;14.00;87.60;;;;;;5035212;28;20021;-67
2021/05/28 07:14:18;;;;;;;9.38;6.68;;;14.20;85.30;;;;;;5033294;28;20022;-66
2021/05/28 07:16:43;;;;;;;12.73;6.47;;;14.20;84.80;;;;;;5037402;28;20044;-67
2021/05/28 07:19:09;;;;;;;11.70;7.18;;;14.20;85.50;;;;;;5033426;28;20041;-67
2021/05/28 07:21:35;;;;;;;13.25;8.32;;;14.20;85.80;;;;;;5035031;28;20025;-67
2021/05/28 07:24:00;;;;;;;15.05;7.22;;;14.30;83.30;;;;;;5023426;28;20036;-68
2021/05/28 07:26:26;;;;;;;11.82;7.53;;;14.30;83.50;;;;;;5049490;28;20355;-67
2021/05/28 07:28:52;;;;;;;11.70;7.50;;;14.40;82.30;;;;;;5047716;28;20037;-67
2021/05/28 07:31:17;;;;;;;15.63;8.07;;;14.40;83.00;;;;;;5048248;28;20033;-67
2021/05/28 07:33:43;;;;;;;10.35;6.95;;;14.40;82.40;;;;;;5037711;28;20092;-67
2021/05/28 07:36:09;;;;;;;10.27;7.05;;;14.50;82.30;;;;;;5033858;28;20053;-67
2021/05/28 07:38:36;;;;;;;11.82;6.90;;;14.70;81.40;;;;;;5034062;28;20474;-67
2021/05/28 07:41:03;;;;;;;11.20;6.80;;;15.00;79.50;;;;;;5015950;28;20033;-67
2021/05/28 07:43:29;;;;;;;9.10;6.47;;;15.10;79.40;;;;;;5041727;28;20090;-67
2021/05/28 07:45:57;;;;;;;9.75;6.05;;;15.20;78.90;;;;;;5034156;28;20529;-67
2021/05/28 07:48:22;;;;;;;10.75;6.90;;;15.30;76.40;;;;;;5033529;28;20036;-67
2021/05/28 07:50:48;;;;;;;9.13;6.03;;;15.30;76.40;;;;;;5034361;28;20026;-67
2021/05/28 07:53:19;;;;;;;10.30;6.82;;;15.30;76.10;;;;;;5048488;28;20025;-67
2021/05/28 07:55:45;;;;;;;9.73;6.00;;;15.20;76.40;;;;;;5053674;28;20047;-67
2021/05/28 07:58:11;;;;;;;8.77;6.10;;;15.20;74.60;;;;;;5049378;28;20053;-67
2021/05/28 08:00:37;;;;;;;11.48;5.88;;;15.20;75.50;;;;;;5057231;28;20040;-67
2021/05/28 08:03:03;;;;;;;6.75;5.60;;;15.20;76.00;;;;;;5058158;28;20040;-68
2021/05/28 08:05:29;;;;;;;7.78;5.47;;;15.20;76.40;;;;;;5052312;28;20033;-67
2021/05/28 08:07:56;;;;;;;8.25;5.47;;;15.30;74.60;;;;;;5048131;28;20036;-67
2021/05/28 08:10:22;;;;;;;12.48;6.18;;;15.50;75.00;;;;;;5046872;28;20021;-67
2021/05/28 08:12:49;;;;;;;9.23;6.03;;;15.60;73.30;;;;;;5033010;28;20021;-67
2021/05/28 08:15:14;;;;;;;8.57;5.28;;;15.60;73.10;;;;;;5050063;28;20033;-67
2021/05/28 08:17:43;;;;;;;9.05;5.15;;;15.70;72.10;;;;;;5047688;28;20104;-67
2021/05/28 08:20:09;;;;;;;7.95;5.15;;;15.70;73.20;;;;;;5044865;28;20029;-67
2021/05/28 08:22:35;;;;;;;9.38;5.80;;;15.70;73.30;;;;;;5050838;28;20062;-67
2021/05/28 08:25:00;;;;;;;8.20;4.97;;;15.80;71.50;;;;;;5041421;28;20402;-68
2021/05/28 08:27:26;;;;;;;12.00;5.38;;;15.80;72.40;;;;;;5032672;28;20082;-67
2021/05/28 08:29:52;;;;;;;9.07;5.35;;;15.80;70.70;;;;;;5041276;28;20036;-67
2021/05/28 08:32:17;;;;;;;8.93;4.93;;;15.70;72.10;;;;;;5045015;28;20501;-68
2021/05/28 08:34:43;;;;;;;6.85;4.38;;;15.60;72.00;;;;;;5032781;28;20029;-68
2021/05/28 08:37:09;;;;;;;8.50;5.00;;;15.60;71.10;;;;;;5036135;28;20094;-67
2021/05/28 08:39:34;;;;;;;9.40;4.78;;;15.60;71.50;;;;;;5052863;28;20033;-68
2021/05/28 08:42:01;;;;;;;7.00;4.38;;;15.60;70.80;;;;;;5030867;28;20029;-68
2021/05/28 08:44:27;;;;;;;8.10;5.07;;;15.70;71.40;;;;;;5034228;28;20055;-67
2021/05/28 08:46:54;;;;;;;8.40;5.18;;;15.80;71.10;;;;;;5051216;28;20041;-68
2021/05/28 08:49:21;;;;;;;6.55;5.15;;;15.80;71.30;;;;;;5044678;28;20698;-67
2021/05/28 08:51:47;;;;;;;7.07;5.90;;;15.90;71.60;;;;;;5039276;28;20109;-67
2021/05/28 08:54:13;;;;;;;6.93;4.82;;;15.90;70.90;;;;;;5051155;28;20389;-67
2021/05/28 08:56:39;;;;;;;7.57;4.70;;;16.00;69.90;;;;;;5051957;28;20123;-67
2021/05/28 08:59:06;;;;;;;6.50;4.55;;;16.00;68.10;;;;;;5050400;28;20115;-67
2021/05/28 09:01:32;;;;;;;5.28;4.00;;;16.10;68.00;;;;;;5037607;28;20018;-67
2021/05/28 09:03:59;;;;;;;7.97;4.20;;;16.20;67.60;;;;;;5043541;28;20025;-67
2021/05/28 09:06:37;;;;;;;8.43;4.53;;;16.30;67.50;;;;;;5048513;28;20059;-67
2021/05/28 09:09:18;;;;;;;6.25;3.70;;;16.40;66.40;;;;;;5040513;28;20036;-68
2021/05/28 09:12:07;;;;;;;11.52;3.50;;;16.50;66.60;;;;;;5024878;28;20063;-67
2021/05/28 09:14:40;;;;;;;9.80;4.18;;;16.50;65.90;;;;;;5034909;28;20033;-67
2021/05/28 09:17:08;;;;;;;7.47;4.55;;;16.70;66.60;;;;;;5033094;28;20037;-67
2021/05/28 09:19:35;;;;;;;7.03;4.40;;;16.80;64.60;;;;;;5033770;28;20087;-66
2021/05/28 09:22:08;;;;;;;8.45;4.10;;;16.60;65.20;;;;;;5043201;28;20036;-69
2021/05/28 09:24:40;;;;;;;5.93;3.90;;;16.60;67.20;;;;;;5040106;28;20032;-67
2021/05/28 09:27:28;;;;;;;6.18;4.25;;;16.50;66.50;;;;;;5051139;28;20033;-68
2021/05/28 09:30:08;;;;;;;8.02;4.43;;;16.40;66.90;;;;;;5022597;28;20076;-68
2021/05/28 09:32:35;;;;;;;8.87;4.67;;;16.30;65.90;;;;;;5037157;28;20112;-67
2021/05/28 09:35:02;;;;;;;11.10;4.57;;;16.20;66.20;;;;;;5031648;28;20041;-68
2021/05/28 09:41:37;;;;;;;7.28;4.25;;;15.60;67.60;;;;;;4991581;28;20086;-67
2021/05/28 09:44:20;;;;;;;7.90;4.60;;;15.50;66.30;;;;;;4987242;28;20432;-71
2021/05/28 09:47:11;;;;;;;7.30;5.10;;;15.40;68.10;;;;;;5035501;28;20037;-67
2021/05/28 09:49:43;;;;;;;9.07;5.38;;;15.40;69.90;;;;;;5021997;28;20410;-67
2021/05/28 09:52:30;;;;;;;8.32;4.85;;;15.30;70.10;;;;;;5043445;28;20104;-71
2021/05/28 09:55:25;;;;;;;;;;;;;;;;;;;;;
2021/05/28 09:57:54;;;;;;;12.40;5.15;;;15.20;69.70;;;;;;5030281;28;20063;-68
2021/05/28 10:00:20;;;;;;;6.32;5.07;;;15.30;70.40;;;;;;5026736;28;20033;-67
2021/05/28 10:02:56;;;;;;;6.55;4.90;;;15.30;69.50;;;;;;5032122;28;20530;-68
2021/05/28 10:05:25;;;;;;;7.85;4.80;;;15.30;70.60;;;;;;5017610;28;20550;-66
2021/05/28 10:07:51;;;;;;;7.72;4.65;;;15.20;70.20;;;;;;5049241;28;20029;-68
2021/05/28 10:10:18;;;;;;;6.93;4.15;;;15.20;70.40;;;;;;5021600;28;20501;-68
2021/05/28 10:12:48;;;;;;;6.18;4.22;;;15.20;70.70;;;;;;5036532;28;20092;-69
2021/05/28 10:15:14;;;;;;;4.35;3.70;;;15.20;69.50;;;;;;5049171;28;20397;-68
2021/05/28 10:17:40;;;;;;;6.70;4.07;;;15.30;69.70;;;;;;5033526;28;20131;-67
2021/05/28 10:20:07;;;;;;;7.00;3.85;;;15.40;66.70;;;;;;5037454;28;20108;-71
2021/05/28 10:22:32;;;;;;;8.30;3.95;;;15.40;67.80;;;;;;5031173;28;20026;-66
2021/05/28 10:25:01;;;;;;;3.58;3.05;;;15.60;67.60;;;;;;5035980;28;20052;-66
2021/05/28 10:27:26;;;;;;;5.50;3.97;;;16.00;66.10;;;;;;5039757;28;20037;-67
2021/05/28 10:29:54;;;;;;;8.30;4.57;;;16.40;64.20;;;;;;5036202;28;20372;-67
2021/05/28 10:32:21;;;;;;;4.10;3.63;;;16.70;64.10;;;;;;5036972;28;20037;-67
2021/05/28 10:35:18;;;;;;;5.80;3.53;;;17.10;62.30;;;;;;5034392;28;20467;-68
2021/05/28 10:37:45;;;;;;;6.88;3.90;;;17.30;61.90;;;;;;5021922;28;20116;-67
2021/05/28 10:40:27;;;;;;;6.38;4.28;;;17.30;61.10;;;;;;5049756;28;20539;-70
2021/05/28 10:43:06;;;;;;;5.22;4.15;;;17.20;62.60;;;;;;5049999;28;20039;-67
2021/05/28 10:45:53;;;;;;;4.38;3.88;;;17.20;62.10;;;;;;5049279;28;20390;-67
2021/05/28 10:48:37;;;;;;;6.55;3.13;;;17.20;62.20;;;;;;5036881;28;20029;-67
2021/05/28 10:51:14;;;;;;;4.60;2.45;;;17.40;59.00;;;;;;5032127;28;20378;-67
2021/05/28 10:53:53;;;;;;;3.47;2.58;;;17.60;56.90;;;;;;5039480;28;20126;-66
2021/05/28 10:56:26;;;;;;;6.20;3.33;;;17.80;56.80;;;;;;5029829;28;20128;-67
2021/05/28 10:58:53;;;;;;;4.95;2.50;;;17.90;57.00;;;;;;5039414;28;20128;-67
2021/05/28 11:01:31;;;;;;;8.65;3.72;;;18.30;58.60;;;;;;5037157;28;20036;-67
2021/05/28 11:03:57;;;;;;;4.32;3.47;;;18.80;55.90;;;;;;5053641;28;20032;-67
2021/05/28 11:06:23;;;;;;;2.97;2.65;;;18.90;53.90;;;;;;5050333;28;20551;-67
2021/05/28 11:08:51;;;;;;;6.10;3.13;;;19.00;55.00;;;;;;5040571;28;20103;-66
2021/05/28 11:11:35;;;;;;;5.93;3.08;;;19.20;52.50;;;;;;5051199;28;20075;-67
2021/05/28 11:14:04;;;;;;;2.90;2.45;;;19.00;50.90;;;;;;5047725;28;20100;-68
2021/05/28 11:16:53;;;;;;;6.15;2.88;;;18.80;52.10;;;;;;5045152;28;20116;-68
2021/05/28 11:19:26;;;;;;;3.30;2.42;;;18.40;53.40;;;;;;5049687;28;20048;-68
2021/05/28 11:21:57;;;;;;;3.05;2.30;;;18.20;54.00;;;;;;5052898;28;20028;-68
2021/05/28 11:24:52;;;;;;;4.65;2.70;;;18.10;53.30;;;;;;5053070;28;20017;-68
2021/05/28 11:27:20;;;;;;;4.03;2.40;;;17.80;53.20;;;;;;5050863;28;20033;-68
2021/05/28 11:29:52;;;;;;;3.55;1.90;;;17.60;54.30;;;;;;5047354;28;20052;-68
2021/05/28 11:32:46;;;;;;;4.40;2.00;;;17.60;55.20;;;;;;5037959;28;20029;-68
2021/05/28 11:35:19;;;;;;;2.92;2.00;;;17.50;56.00;;;;;;5041828;28;20049;-70
2021/05/28 11:37:51;;;;;;;5.90;2.50;;;17.70;56.10;;;;;;5042245;28;20017;-68
2021/05/28 11:40:24;;;;;;;2.28;2.08;;;17.90;55.10;;;;;;5044061;28;20037;-68
2021/05/28 11:42:52;;;;;;;4.13;2.67;;;18.30;55.80;;;;;;5053392;28;20025;-68
2021/05/28 11:45:19;;;;;;;5.22;2.60;;;18.90;53.20;;;;;;5050248;28;20037;-68
2021/05/28 11:47:46;;;;;;;7.20;3.30;;;19.30;52.40;;;;;;5024435;28;20029;-68
2021/05/28 11:50:16;;;;;;;7.97;3.33;;;19.10;52.80;;;;;;5033446;28;20033;-70
2021/05/28 11:52:55;;;;;;;4.55;3.00;;;19.00;52.80;;;;;;5043081;28;20037;-68
2021/05/28 11:55:20;;;;;;;4.15;2.70;;;18.80;54.20;;;;;;5052135;28;20045;-68
2021/05/28 11:57:56;;;;;;;3.53;2.42;;;18.50;53.60;;;;;;5036738;28;20130;-68
2021/05/28 12:00:23;;;;;;;5.90;1.90;;;18.40;52.70;;;;;;5050484;28;20471;-68
2021/05/28 12:02:52;;;;;;;2.58;1.83;;;18.50;53.00;;;;;;5052685;28;20463;-68
2021/05/28 12:05:21;;;;;;;2.45;1.98;;;18.90;50.40;;;;;;5050735;28;20397;-68
2021/05/28 12:07:47;;;;;;;2.67;2.00;;;19.30;50.50;;;;;;5036388;28;20029;-68
2021/05/28 12:10:14;;;;;;;3.78;2.30;;;19.70;50.20;;;;;;5033161;28;20076;-70
2021/05/28 12:12:58;;;;;;;3.72;2.38;;;20.20;49.00;;;;;;5033583;28;20021;-68
2021/05/28 12:15:26;;;;;;;5.20;2.42;;;20.80;48.20;;;;;;5049944;28;20095;-68
2021/05/28 12:17:52;;;;;;;4.57;2.15;;;21.50;46.00;;;;;;5023535;28;20411;-68
2021/05/28 12:20:32;;;;;;;2.10;1.90;;;21.70;45.90;;;;;;5049583;28;20490;-68
2021/05/28 12:23:04;;;;;;;3.03;2.03;;;21.90;44.90;;;;;;5052025;28;20039;-68
2021/05/28 12:25:32;;;;;;;2.92;1.73;;;22.20;45.20;;;;;;5043300;28;20045;-68
2021/05/28 12:28:19;;;;;;;3.40;1.80;;;22.40;44.70;;;;;;5052286;28;20109;-68
2021/05/28 12:30:55;;;;;;;2.10;1.50;;;22.60;42.10;;;;;;5052252;28;20029;-68
2021/05/28 12:33:26;;;;;;;2.42;1.70;;;23.00;43.20;;;;;;5046861;28;20402;-68
2021/05/28 12:35:55;;;;;;;2.22;1.65;;;23.50;41.10;;;;;;5034228;28;20426;-67
2021/05/28 12:38:22;;;;;;;2.30;2.08;;;23.80;40.80;;;;;;5032081;28;20040;-68
2021/05/28 12:40:49;;;;;;;2.88;2.15;;;23.50;41.70;;;;;;5033528;28;20641;-68
2021/05/28 12:43:26;;;;;;;2.75;2.38;;;23.00;43.10;;;;;;5048173;28;20037;-70
2021/05/28 12:45:54;;;;;;;2.45;1.95;;;22.10;44.20;;;;;;5042309;28;20033;-67
2021/05/28 12:48:21;;;;;;;3.10;1.60;;;21.30;45.40;;;;;;5033852;28;20037;-67
2021/05/28 12:50:50;;;;;;;3.08;1.77;;;20.70;46.70;;;;;;5032798;28;20536;-67
2021/05/28 12:53:20;;;;;;;2.42;1.65;;;20.20;46.80;;;;;;5010407;28;20428;-68